createdAt,value
2023-03-23T15:59:11.866Z,2.37
2023-03-23T16:01:42.893Z,2.03
2023-03-23T16:04:18.992Z,2.53
2023-03-23T16:06:47.020Z,2.40
2023-03-23T16:09:18.544Z,2.70
2023-03-23T16:11:46.355Z,1.97
2023-03-23T16:14:13.915Z,1.70
2023-03-23T16:16:51.185Z,2.07
2023-03-23T16:19:20.761Z,1.93
2023-03-23T16:21:48.231Z,1.90
2023-03-23T16:24:16.067Z,2.00
2023-03-23T16:26:43.569Z,1.97
2023-03-23T16:29:24.462Z,1.87
2023-03-23T16:32:01.791Z,1.90
2023-03-23T16:34:33.171Z,1.70
2023-03-23T16:37:00.843Z,2.27
2023-03-23T16:39:28.710Z,2.50
2023-03-23T16:41:56.346Z,2.43
2023-03-23T16:44:23.903Z,2.30
2023-03-23T16:46:51.388Z,2.47
2023-03-23T16:49:18.839Z,2.20
2023-03-23T16:51:47.410Z,2.50
2023-03-23T16:54:14.899Z,2.50
2023-03-23T16:56:46.978Z,2.60
2023-03-23T16:59:14.934Z,2.97
2023-03-23T17:01:43.407Z,3.40
2023-03-23T17:04:12.201Z,3.30
2023-03-23T17:06:39.804Z,2.10
2023-03-23T17:09:08.047Z,1.70
2023-03-23T17:11:35.979Z,1.80
2023-03-23T17:14:03.803Z,1.90
2023-03-23T17:16:31.420Z,1.50
2023-03-23T17:18:58.903Z,1.70
2023-03-23T17:21:26.419Z,1.70
2023-03-23T17:23:54.612Z,2.33
2023-03-23T17:26:22.097Z,3.10
2023-03-23T17:28:49.588Z,7.00
2023-03-23T17:31:17.110Z,3.73
2023-03-23T17:33:44.770Z,3.57
2023-03-23T17:36:12.381Z,4.27
2023-03-23T17:38:39.956Z,3.00
2023-03-23T17:41:08.258Z,2.50
2023-03-23T17:43:36.605Z,3.57
2023-03-23T17:46:04.634Z,3.30
2023-03-23T17:48:32.169Z,2.50
2023-03-23T17:51:02.383Z,2.73
2023-03-23T17:53:32.119Z,3.17
2023-03-23T17:55:59.988Z,3.23
2023-03-23T17:58:27.775Z,3.37
2023-03-23T18:00:56.755Z,5.80
2023-03-23T18:03:25.643Z,4.83
2023-03-23T18:06:00.374Z,4.60
2023-03-23T18:08:28.685Z,7.60
2023-03-23T18:10:58.104Z,5.20
2023-03-23T18:13:27.573Z,4.77
2023-03-23T18:15:58.495Z,6.43
2023-03-23T18:18:26.974Z,6.90
2023-03-23T18:21:00.445Z,5.67
2023-03-23T18:23:29.187Z,4.90
2023-03-23T18:25:56.642Z,3.87
2023-03-23T18:28:25.508Z,4.00
2023-03-23T18:30:52.976Z,3.47
2023-03-23T18:33:22.285Z,4.63
2023-03-23T18:35:57.077Z,5.37
2023-03-23T18:38:24.837Z,4.73
2023-03-23T18:40:52.449Z,6.33
2023-03-23T18:43:20.156Z,6.43
2023-03-23T18:45:58.153Z,5.23
2023-03-23T18:48:25.690Z,5.60
2023-03-23T18:50:56.270Z,10.93
2023-03-23T18:53:25.103Z,8.67
2023-03-23T18:55:53.631Z,8.03
2023-03-23T18:58:21.561Z,6.30
2023-03-23T19:00:50.140Z,7.10
2023-03-23T19:03:17.689Z,10.20
2023-03-23T19:05:45.895Z,8.83
2023-03-23T19:08:13.649Z,7.60
2023-03-23T19:10:43.214Z,7.57
2023-03-23T19:13:11.632Z,6.03
2023-03-23T19:15:41.142Z,5.93
2023-03-23T19:18:09.214Z,5.83
2023-03-23T19:21:10.802Z,5.13
2023-03-23T19:23:24.644Z,4.60
2023-03-23T19:25:54.062Z,5.00
2023-03-23T19:29:05.594Z,5.37
2023-03-23T19:31:09.482Z,4.70
2023-03-23T19:33:37.064Z,4.93
2023-03-23T19:36:09.303Z,5.00
2023-03-23T19:38:39.115Z,5.40
2023-03-23T19:41:07.042Z,5.00
2023-03-23T19:43:34.923Z,4.60
2023-03-23T19:46:02.997Z,4.80
2023-03-23T19:48:31.203Z,4.27
2023-03-23T19:50:58.846Z,4.53
2023-03-23T19:53:27.303Z,5.53
2023-03-23T19:55:54.795Z,4.57
2023-03-23T19:58:22.700Z,4.77
2023-03-23T20:00:50.682Z,4.93
2023-03-23T20:03:18.316Z,4.90
2023-03-23T20:05:46.894Z,5.37
2023-03-23T20:08:16.485Z,6.00
2023-03-23T20:10:44.000Z,5.77
2023-03-23T20:13:13.979Z,5.67
2023-03-23T20:15:41.443Z,5.73
2023-03-23T20:18:09.934Z,5.07
2023-03-23T20:20:37.697Z,5.13
2023-03-23T20:23:07.990Z,5.67
2023-03-23T20:25:36.741Z,6.50
2023-03-23T20:28:04.985Z,7.17
2023-03-23T20:30:32.505Z,6.80
2023-03-23T20:33:01.007Z,5.77
2023-03-23T20:35:29.611Z,6.40
2023-03-23T20:37:57.721Z,5.63
2023-03-23T20:40:25.282Z,5.80
2023-03-23T20:42:54.628Z,6.30
2023-03-23T20:45:22.627Z,5.77
2023-03-23T20:47:50.148Z,6.20
2023-03-23T20:50:17.756Z,7.83
2023-03-23T20:52:45.255Z,6.87
2023-03-23T20:55:12.744Z,6.03
2023-03-23T20:57:40.457Z,6.30
2023-03-23T21:00:09.566Z,8.67
2023-03-23T21:02:37.181Z,7.83
2023-03-23T21:05:05.330Z,7.43
2023-03-23T21:07:32.900Z,7.30
2023-03-23T21:10:00.847Z,6.67
2023-03-23T21:12:28.515Z,7.73
2023-03-23T21:14:56.164Z,6.37
2023-03-23T21:17:23.570Z,7.43
2023-03-23T21:19:51.331Z,6.70
2023-03-23T21:22:19.085Z,6.80
2023-03-23T21:24:46.738Z,6.30
2023-03-23T21:27:14.198Z,6.00
2023-03-23T21:29:41.707Z,5.53
2023-03-23T21:32:10.077Z,6.40
2023-03-23T21:34:38.270Z,5.47
2023-03-23T21:37:05.888Z,6.40
2023-03-23T21:39:34.733Z,7.13
2023-03-23T21:42:04.889Z,6.10
2023-03-23T21:44:35.123Z,6.40
2023-03-23T21:47:03.702Z,6.47
2023-03-23T21:49:31.739Z,6.50
2023-03-23T21:51:59.309Z,7.13
2023-03-23T21:54:30.260Z,7.37
2023-03-23T21:56:59.191Z,7.03
2023-03-23T21:59:27.927Z,7.07
2023-03-23T22:01:58.348Z,6.30
2023-03-23T22:04:26.049Z,7.03
2023-03-23T22:06:53.574Z,7.03
2023-03-23T22:09:21.129Z,7.20
2023-03-23T22:11:48.608Z,7.40
2023-03-23T22:14:16.673Z,7.17
2023-03-23T22:16:44.578Z,7.37
2023-03-23T22:19:12.089Z,7.70
2023-03-23T22:21:39.660Z,6.97
2023-03-23T22:24:07.290Z,7.00
2023-03-23T22:26:34.874Z,6.50
2023-03-23T22:29:03.651Z,6.43
2023-03-23T22:31:35.281Z,7.00
2023-03-23T22:34:03.637Z,6.40
2023-03-23T22:36:33.462Z,7.07
2023-03-23T22:39:02.504Z,8.50
2023-03-23T22:41:38.176Z,11.90
2023-03-23T22:44:09.977Z,9.27
2023-03-23T22:46:37.394Z,10.60
2023-03-23T22:49:05.489Z,10.43
2023-03-23T22:51:33.053Z,8.97
2023-03-23T22:54:01.093Z,7.43
2023-03-23T22:56:28.703Z,7.87
2023-03-23T22:58:58.984Z,8.73
2023-03-23T23:01:27.761Z,9.63
2023-03-23T23:03:55.278Z,12.30
2023-03-23T23:06:22.886Z,9.77
2023-03-23T23:08:51.936Z,7.40
2023-03-23T23:11:22.236Z,7.40
2023-03-23T23:13:49.837Z,6.67
2023-03-23T23:16:19.033Z,6.30
2023-03-23T23:18:48.496Z,6.10
2023-03-23T23:21:21.477Z,5.67
2023-03-23T23:23:51.379Z,7.43
2023-03-23T23:26:20.166Z,7.30
2023-03-23T23:28:48.732Z,6.50
2023-03-23T23:31:26.472Z,7.07
2023-03-23T23:33:57.548Z,9.10
2023-03-23T23:36:30.497Z,7.90
2023-03-23T23:39:00.696Z,9.20
2023-03-23T23:41:30.071Z,6.60
2023-03-23T23:43:57.765Z,8.00
2023-03-23T23:46:25.696Z,6.93
2023-03-23T23:48:53.258Z,6.53
2023-03-23T23:51:21.097Z,6.17
2023-03-23T23:53:53.590Z,6.40
2023-03-23T23:56:22.453Z,5.90
2023-03-23T23:58:50.063Z,5.47
